sensor_id;sensor_type;location;lat;lon;timestamp;temperature;humidity
43647;DHT22;56152;49.996;18.980;2023-11-18T00:02:01;3.40;99.30
43647;DHT22;56152;49.996;18.980;2023-11-18T00:07:05;3.40;99.30
43647;DHT22;56152;49.996;18.980;2023-11-18T00:12:07;3.40;99.30
43647;DHT22;56152;49.996;18.980;2023-11-18T00:17:10;3.30;99.30
43647;DHT22;56152;49.996;18.980;2023-11-18T00:22:15;3.30;99.30
43647;DHT22;56152;49.996;18.980;2023-11-18T00:27:17;3.30;99.30
43647;DHT22;56152;49.996;18.980;2023-11-18T00:32:20;3.30;99.30
43647;DHT22;56152;49.996;18.980;2023-11-18T00:37:24;3.40;99.40
43647;DHT22;56152;49.996;18.980;2023-11-18T00:42:26;3.30;99.40
43647;DHT22;56152;49.996;18.980;2023-11-18T00:47:29;3.30;99.40
43647;DHT22;56152;49.996;18.980;2023-11-18T00:52:36;3.30;99.40
43647;DHT22;56152;49.996;18.980;2023-11-18T00:57:42;3.30;99.40
43647;DHT22;56152;49.996;18.980;2023-11-18T01:02:44;3.30;99.40
43647;DHT22;56152;49.996;18.980;2023-11-18T01:07:50;3.40;99.40
43647;DHT22;56152;49.996;18.980;2023-11-18T01:12:53;3.40;99.50
43647;DHT22;56152;49.996;18.980;2023-11-18T01:17:56;3.40;99.50
43647;DHT22;56152;49.996;18.980;2023-11-18T01:23:03;3.40;99.50
43647;DHT22;56152;49.996;18.980;2023-11-18T01:28:05;3.40;99.50
43647;DHT22;56152;49.996;18.980;2023-11-18T01:33:07;3.40;99.50
43647;DHT22;56152;49.996;18.980;2023-11-18T01:38:18;3.40;99.50
43647;DHT22;56152;49.996;18.980;2023-11-18T01:43:21;3.40;99.50
43647;DHT22;56152;49.996;18.980;2023-11-18T01:48:23;3.40;99.60
43647;DHT22;56152;49.996;18.980;2023-11-18T01:53:29;3.30;99.50
43647;DHT22;56152;49.996;18.980;2023-11-18T01:58:35;3.30;99.50
43647;DHT22;56152;49.996;18.980;2023-11-18T02:03:41;3.30;99.50
43647;DHT22;56152;49.996;18.980;2023-11-18T02:08:52;3.30;99.50
43647;DHT22;56152;49.996;18.980;2023-11-18T02:13:58;3.30;99.60
43647;DHT22;56152;49.996;18.980;2023-11-18T02:19:04;3.30;99.60
43647;DHT22;56152;49.996;18.980;2023-11-18T02:24:25;3.30;99.60
43647;DHT22;56152;49.996;18.980;2023-11-18T02:29:34;3.30;99.70
43647;DHT22;56152;49.996;18.980;2023-11-18T02:34:43;3.20;99.50
43647;DHT22;56152;49.996;18.980;2023-11-18T02:39:57;3.20;99.60
43647;DHT22;56152;49.996;18.980;2023-11-18T02:45:07;3.20;99.70
43647;DHT22;56152;49.996;18.980;2023-11-18T02:50:13;3.10;99.60
43647;DHT22;56152;49.996;18.980;2023-11-18T02:55:16;3.10;99.60
43647;DHT22;56152;49.996;18.980;2023-11-18T03:00:24;3.00;99.60
43647;DHT22;56152;49.996;18.980;2023-11-18T03:05:29;2.90;99.70
43647;DHT22;56152;49.996;18.980;2023-11-18T03:10:31;2.90;99.80
43647;DHT22;56152;49.996;18.980;2023-11-18T03:15:38;3.00;99.90
43647;DHT22;56152;49.996;18.980;2023-11-18T03:20:40;3.00;99.80
43647;DHT22;56152;49.996;18.980;2023-11-18T03:25:44;3.00;99.80
43647;DHT22;56152;49.996;18.980;2023-11-18T03:30:48;3.10;99.80
43647;DHT22;56152;49.996;18.980;2023-11-18T03:35:51;3.10;99.80
43647;DHT22;56152;49.996;18.980;2023-11-18T03:40:55;3.20;99.80
43647;DHT22;56152;49.996;18.980;2023-11-18T03:46:01;3.20;99.70
43647;DHT22;56152;49.996;18.980;2023-11-18T03:51:04;3.20;99.70
43647;DHT22;56152;49.996;18.980;2023-11-18T03:56:08;3.20;99.70
43647;DHT22;56152;49.996;18.980;2023-11-18T04:01:19;3.20;99.80
43647;DHT22;56152;49.996;18.980;2023-11-18T04:06:22;3.20;99.70
43647;DHT22;56152;49.996;18.980;2023-11-18T04:11:28;3.20;99.70
43647;DHT22;56152;49.996;18.980;2023-11-18T04:16:33;3.20;99.70
43647;DHT22;56152;49.996;18.980;2023-11-18T04:21:35;3.20;99.80
43647;DHT22;56152;49.996;18.980;2023-11-18T04:26:37;3.20;99.80
43647;DHT22;56152;49.996;18.980;2023-11-18T04:31:42;3.20;99.80
43647;DHT22;56152;49.996;18.980;2023-11-18T04:36:44;3.10;99.80
43647;DHT22;56152;49.996;18.980;2023-11-18T04:41:49;3.20;99.90
43647;DHT22;56152;49.996;18.980;2023-11-18T04:46:54;3.20;99.80
43647;DHT22;56152;49.996;18.980;2023-11-18T04:51:59;3.10;99.80
43647;DHT22;56152;49.996;18.980;2023-11-18T04:57:01;3.10;99.90
43647;DHT22;56152;49.996;18.980;2023-11-18T05:02:06;3.10;99.90
43647;DHT22;56152;49.996;18.980;2023-11-18T05:07:11;3.10;99.90
43647;DHT22;56152;49.996;18.980;2023-11-18T05:12:13;3.10;99.90
43647;DHT22;56152;49.996;18.980;2023-11-18T05:17:18;3.10;99.90
43647;DHT22;56152;49.996;18.980;2023-11-18T05:22:25;3.10;99.90
43647;DHT22;56152;49.996;18.980;2023-11-18T05:27:28;3.10;99.90
43647;DHT22;56152;49.996;18.980;2023-11-18T05:32:36;3.10;99.90
43647;DHT22;56152;49.996;18.980;2023-11-18T05:37:42;3.20;99.90
43647;DHT22;56152;49.996;18.980;2023-11-18T05:42:48;3.20;99.90
43647;DHT22;56152;49.996;18.980;2023-11-18T05:47:55;3.20;99.90
43647;DHT22;56152;49.996;18.980;2023-11-18T05:52:58;3.20;99.90
43647;DHT22;56152;49.996;18.980;2023-11-18T05:58:00;3.20;99.90
43647;DHT22;56152;49.996;18.980;2023-11-18T06:03:05;3.20;99.90
43647;DHT22;56152;49.996;18.980;2023-11-18T06:08:10;3.20;99.90
43647;DHT22;56152;49.996;18.980;2023-11-18T06:13:13;3.20;99.90
43647;DHT22;56152;49.996;18.980;2023-11-18T06:18:19;3.20;99.90
43647;DHT22;56152;49.996;18.980;2023-11-18T06:23:21;3.20;99.90
43647;DHT22;56152;49.996;18.980;2023-11-18T06:28:23;3.20;99.90
43647;DHT22;56152;49.996;18.980;2023-11-18T06:33:31;3.10;99.90
43647;DHT22;56152;49.996;18.980;2023-11-18T06:38:35;3.10;99.90
43647;DHT22;56152;49.996;18.980;2023-11-18T06:43:39;3.00;99.90
43647;DHT22;56152;49.996;18.980;2023-11-18T06:49:01;3.00;99.90
43647;DHT22;56152;49.996;18.980;2023-11-18T06:54:05;3.10;99.90
43647;DHT22;56152;49.996;18.980;2023-11-18T06:59:14;3.10;99.90
43647;DHT22;56152;49.996;18.980;2023-11-18T07:04:20;3.10;99.90
43647;DHT22;56152;49.996;18.980;2023-11-18T07:09:22;3.10;99.90
43647;DHT22;56152;49.996;18.980;2023-11-18T07:14:27;3.10;99.90
43647;DHT22;56152;49.996;18.980;2023-11-18T07:19:32;3.10;99.90
43647;DHT22;56152;49.996;18.980;2023-11-18T07:24:34;3.20;99.90
43647;DHT22;56152;49.996;18.980;2023-11-18T07:29:38;3.20;99.90
43647;DHT22;56152;49.996;18.980;2023-11-18T07:34:42;3.20;99.90
43647;DHT22;56152;49.996;18.980;2023-11-18T07:39:44;3.20;99.90
43647;DHT22;56152;49.996;18.980;2023-11-18T07:44:49;3.20;99.90
43647;DHT22;56152;49.996;18.980;2023-11-18T07:49:57;3.20;99.90
43647;DHT22;56152;49.996;18.980;2023-11-18T07:54:59;3.10;99.90
43647;DHT22;56152;49.996;18.980;2023-11-18T08:00:05;3.10;99.90
43647;DHT22;56152;49.996;18.980;2023-11-18T08:05:12;3.10;99.90
43647;DHT22;56152;49.996;18.980;2023-11-18T08:10:15;3.20;99.90
43647;DHT22;56152;49.996;18.980;2023-11-18T08:15:19;3.10;99.90
43647;DHT22;56152;49.996;18.980;2023-11-18T08:20:24;3.20;99.90
43647;DHT22;56152;49.996;18.980;2023-11-18T08:25:27;3.20;99.90
43647;DHT22;56152;49.996;18.980;2023-11-18T08:30:31;3.30;99.90
43647;DHT22;56152;49.996;18.980;2023-11-18T08:35:36;3.40;99.90
43647;DHT22;56152;49.996;18.980;2023-11-18T08:40:38;3.50;99.90
43647;DHT22;56152;49.996;18.980;2023-11-18T08:45:44;3.40;99.90
43647;DHT22;56152;49.996;18.980;2023-11-18T08:50:50;3.40;99.90
43647;DHT22;56152;49.996;18.980;2023-11-18T08:55:53;3.40;99.80
43647;DHT22;56152;49.996;18.980;2023-11-18T09:00:57;3.40;99.80
43647;DHT22;56152;49.996;18.980;2023-11-18T09:06:11;3.40;99.80
43647;DHT22;56152;49.996;18.980;2023-11-18T09:11:19;3.40;99.80
43647;DHT22;56152;49.996;18.980;2023-11-18T09:16:24;3.30;99.70
43647;DHT22;56152;49.996;18.980;2023-11-18T09:21:32;3.30;99.70
43647;DHT22;56152;49.996;18.980;2023-11-18T09:26:39;3.20;99.70
43647;DHT22;56152;49.996;18.980;2023-11-18T09:31:45;3.10;99.90
43647;DHT22;56152;49.996;18.980;2023-11-18T09:36:50;3.10;99.90
43647;DHT22;56152;49.996;18.980;2023-11-18T09:41:52;3.10;99.90
43647;DHT22;56152;49.996;18.980;2023-11-18T09:46:57;3.10;99.90
43647;DHT22;56152;49.996;18.980;2023-11-18T09:52:06;3.00;99.90
43647;DHT22;56152;49.996;18.980;2023-11-18T09:57:14;3.00;99.90
43647;DHT22;56152;49.996;18.980;2023-11-18T10:02:20;3.00;99.90
43647;DHT22;56152;49.996;18.980;2023-11-18T10:07:29;3.00;99.90
43647;DHT22;56152;49.996;18.980;2023-11-18T10:12:33;2.90;99.80
43647;DHT22;56152;49.996;18.980;2023-11-18T10:17:41;2.80;99.80
43647;DHT22;56152;49.996;18.980;2023-11-18T10:23:12;2.80;99.90
43647;DHT22;56152;49.996;18.980;2023-11-18T10:28:26;2.80;99.90
43647;DHT22;56152;49.996;18.980;2023-11-18T10:33:39;2.70;99.90
43647;DHT22;56152;49.996;18.980;2023-11-18T10:38:44;2.60;99.90
43647;DHT22;56152;49.996;18.980;2023-11-18T10:44:05;2.60;99.90
43647;DHT22;56152;49.996;18.980;2023-11-18T10:49:16;2.50;99.90
43647;DHT22;56152;49.996;18.980;2023-11-18T10:54:24;2.50;99.90
43647;DHT22;56152;49.996;18.980;2023-11-18T10:59:27;2.50;99.90
43647;DHT22;56152;49.996;18.980;2023-11-18T11:04:43;2.60;99.90
43647;DHT22;56152;49.996;18.980;2023-11-18T11:09:47;2.70;99.90
43647;DHT22;56152;49.996;18.980;2023-11-18T11:15:01;2.80;99.90
43647;DHT22;56152;49.996;18.980;2023-11-18T11:20:09;2.80;99.90
43647;DHT22;56152;49.996;18.980;2023-11-18T11:25:22;2.70;99.90
43647;DHT22;56152;49.996;18.980;2023-11-18T11:30:42;2.70;99.80
43647;DHT22;56152;49.996;18.980;2023-11-18T11:35:52;2.50;99.80
43647;DHT22;56152;49.996;18.980;2023-11-18T11:41:01;2.40;99.80
43647;DHT22;56152;49.996;18.980;2023-11-18T11:46:09;2.30;99.90
43647;DHT22;56152;49.996;18.980;2023-11-18T11:51:20;2.30;99.90
43647;DHT22;56152;49.996;18.980;2023-11-18T11:56:42;2.30;99.90
43647;DHT22;56152;49.996;18.980;2023-11-18T12:01:47;2.30;99.90
43647;DHT22;56152;49.996;18.980;2023-11-18T12:06:53;2.10;99.80
43647;DHT22;56152;49.996;18.980;2023-11-18T12:11:59;2.10;99.90
43647;DHT22;56152;49.996;18.980;2023-11-18T12:17:04;2.10;99.90
43647;DHT22;56152;49.996;18.980;2023-11-18T12:22:10;2.10;99.90
43647;DHT22;56152;49.996;18.980;2023-11-18T12:27:41;2.10;99.90
43647;DHT22;56152;49.996;18.980;2023-11-18T12:32:59;2.10;99.80
43647;DHT22;56152;49.996;18.980;2023-11-18T12:38:30;2.00;99.80
43647;DHT22;56152;49.996;18.980;2023-11-18T12:43:49;2.00;99.80
43647;DHT22;56152;49.996;18.980;2023-11-18T12:48:57;2.00;99.90
43647;DHT22;56152;49.996;18.980;2023-11-18T12:54:01;2.00;99.80
43647;DHT22;56152;49.996;18.980;2023-11-18T12:59:13;2.10;99.90
43647;DHT22;56152;49.996;18.980;2023-11-18T13:04:19;2.10;99.80
43647;DHT22;56152;49.996;18.980;2023-11-18T13:09:24;2.10;99.80
43647;DHT22;56152;49.996;18.980;2023-11-18T13:14:31;2.10;99.80
43647;DHT22;56152;49.996;18.980;2023-11-18T13:19:37;2.10;99.80
43647;DHT22;56152;49.996;18.980;2023-11-18T13:24:43;2.10;99.80
43647;DHT22;56152;49.996;18.980;2023-11-18T13:29:47;2.20;99.80
43647;DHT22;56152;49.996;18.980;2023-11-18T13:34:54;2.20;99.80
43647;DHT22;56152;49.996;18.980;2023-11-18T13:39:56;2.20;99.70
43647;DHT22;56152;49.996;18.980;2023-11-18T13:45:04;2.30;99.80
43647;DHT22;56152;49.996;18.980;2023-11-18T13:50:10;2.40;99.70
43647;DHT22;56152;49.996;18.980;2023-11-18T13:55:16;2.40;99.60
43647;DHT22;56152;49.996;18.980;2023-11-18T14:00:28;2.40;99.80
43647;DHT22;56152;49.996;18.980;2023-11-18T14:05:33;2.40;99.50
43647;DHT22;56152;49.996;18.980;2023-11-18T14:10:36;2.50;99.50
43647;DHT22;56152;49.996;18.980;2023-11-18T14:15:43;2.40;99.40
43647;DHT22;56152;49.996;18.980;2023-11-18T14:20:47;2.40;99.50
43647;DHT22;56152;49.996;18.980;2023-11-18T14:25:51;2.40;99.50
43647;DHT22;56152;49.996;18.980;2023-11-18T14:31:04;2.40;99.50
43647;DHT22;56152;49.996;18.980;2023-11-18T14:36:08;2.40;99.40
43647;DHT22;56152;49.996;18.980;2023-11-18T14:41:12;2.30;99.40
43647;DHT22;56152;49.996;18.980;2023-11-18T14:46:17;2.30;99.50
43647;DHT22;56152;49.996;18.980;2023-11-18T14:51:20;2.30;99.40
43647;DHT22;56152;49.996;18.980;2023-11-18T14:56:23;2.30;99.40
43647;DHT22;56152;49.996;18.980;2023-11-18T15:01:26;2.30;99.50
43647;DHT22;56152;49.996;18.980;2023-11-18T15:06:29;2.30;99.50
43647;DHT22;56152;49.996;18.980;2023-11-18T15:16:43;2.20;99.50
43647;DHT22;56152;49.996;18.980;2023-11-18T15:21:50;2.20;99.50
43647;DHT22;56152;49.996;18.980;2023-11-18T15:26:55;2.30;99.60
43647;DHT22;56152;49.996;18.980;2023-11-18T15:31:59;2.20;99.50
43647;DHT22;56152;49.996;18.980;2023-11-18T15:37:02;2.10;99.50
43647;DHT22;56152;49.996;18.980;2023-11-18T15:42:05;2.10;99.50
43647;DHT22;56152;49.996;18.980;2023-11-18T15:47:09;2.10;99.60
43647;DHT22;56152;49.996;18.980;2023-11-18T15:52:20;2.10;99.50
43647;DHT22;56152;49.996;18.980;2023-11-18T15:57:25;2.10;99.90
43647;DHT22;56152;49.996;18.980;2023-11-18T16:02:29;2.10;99.60
43647;DHT22;56152;49.996;18.980;2023-11-18T16:07:31;2.10;99.50
43647;DHT22;56152;49.996;18.980;2023-11-18T16:12:33;2.10;99.60
43647;DHT22;56152;49.996;18.980;2023-11-18T16:17:39;2.10;99.50
43647;DHT22;56152;49.996;18.980;2023-11-18T16:22:43;2.20;99.50
43647;DHT22;56152;49.996;18.980;2023-11-18T16:27:54;2.20;99.50
43647;DHT22;56152;49.996;18.980;2023-11-18T16:32:59;2.20;99.50
43647;DHT22;56152;49.996;18.980;2023-11-18T16:38:03;2.20;99.40
43647;DHT22;56152;49.996;18.980;2023-11-18T16:43:08;2.20;99.40
43647;DHT22;56152;49.996;18.980;2023-11-18T16:48:13;2.20;99.40
43647;DHT22;56152;49.996;18.980;2023-11-18T16:53:15;2.20;99.40
43647;DHT22;56152;49.996;18.980;2023-11-18T16:58:21;2.20;99.40
43647;DHT22;56152;49.996;18.980;2023-11-18T17:03:25;2.20;99.40
43647;DHT22;56152;49.996;18.980;2023-11-18T17:08:30;2.20;99.40
43647;DHT22;56152;49.996;18.980;2023-11-18T17:13:32;2.20;99.40
43647;DHT22;56152;49.996;18.980;2023-11-18T17:18:35;2.20;99.40
43647;DHT22;56152;49.996;18.980;2023-11-18T17:23:41;2.20;99.40
43647;DHT22;56152;49.996;18.980;2023-11-18T17:28:44;2.20;99.40
43647;DHT22;56152;49.996;18.980;2023-11-18T17:33:48;2.20;99.40
43647;DHT22;56152;49.996;18.980;2023-11-18T17:38:54;2.20;99.40
43647;DHT22;56152;49.996;18.980;2023-11-18T17:43:57;2.20;99.40
